createdAt,value
2022-11-15T00:00:16.584Z,10.80
2022-11-15T00:03:02.253Z,10.70
2022-11-15T00:05:47.832Z,10.70
2022-11-15T00:08:34.097Z,10.60
2022-11-15T00:11:19.712Z,10.60
2022-11-15T00:14:05.634Z,10.50
2022-11-15T00:16:51.118Z,10.50
2022-11-15T00:19:37.001Z,10.40
2022-11-15T00:22:22.380Z,10.40
2022-11-15T00:25:08.269Z,10.30
2022-11-15T00:27:57.630Z,10.30
2022-11-15T00:30:43.450Z,10.20
2022-11-15T00:33:29.223Z,10.20
2022-11-15T00:36:14.950Z,10.10
2022-11-15T00:39:01.316Z,10.00
2022-11-15T00:41:47.222Z,10.00
2022-11-15T00:44:32.781Z,10.00
2022-11-15T00:47:18.331Z,9.90
2022-11-15T00:50:04.838Z,9.90
2022-11-15T00:52:50.066Z,9.80
2022-11-15T00:55:35.622Z,9.80
2022-11-15T00:58:21.266Z,9.80
2022-11-15T01:01:13.762Z,9.80
2022-11-15T01:04:01.569Z,9.80
2022-11-15T01:06:47.250Z,9.80
2022-11-15T01:09:33.016Z,9.70
2022-11-15T01:12:18.753Z,9.70
2022-11-15T01:15:05.386Z,9.60
2022-11-15T01:17:50.763Z,9.70
2022-11-15T01:20:41.960Z,9.60
2022-11-15T01:23:27.301Z,9.60
2022-11-15T01:26:15.038Z,9.60
2022-11-15T01:29:00.459Z,9.50
2022-11-15T01:31:45.912Z,9.50
2022-11-15T01:34:31.480Z,9.50
2022-11-15T01:37:17.106Z,9.50
2022-11-15T01:40:02.500Z,9.50
2022-11-15T01:42:48.101Z,9.50
2022-11-15T01:45:33.725Z,9.50
2022-11-15T01:48:19.266Z,9.40
2022-11-15T01:51:08.866Z,9.40
2022-11-15T01:53:59.436Z,9.40
2022-11-15T01:56:57.667Z,9.30
2022-11-15T01:59:45.894Z,9.30
2022-11-15T02:02:32.200Z,9.30
2022-11-15T02:05:18.035Z,9.30
2022-11-15T02:08:03.350Z,9.30
2022-11-15T02:10:48.787Z,9.30
2022-11-15T02:13:34.406Z,9.30
2022-11-15T02:16:50.135Z,9.30
2022-11-15T02:20:00.352Z,9.20
2022-11-15T02:23:09.959Z,9.20
2022-11-15T02:26:21.252Z,9.20
2022-11-15T02:29:11.944Z,9.20
2022-11-15T02:32:09.325Z,9.20
2022-11-15T02:34:58.011Z,9.20
2022-11-15T02:38:06.237Z,9.20
2022-11-15T02:40:58.058Z,9.20
2022-11-15T02:44:02.085Z,9.20
2022-11-15T02:47:12.676Z,9.20
2022-11-15T02:50:07.521Z,9.30
2022-11-15T02:52:53.562Z,9.30
2022-11-15T02:55:46.006Z,9.30
2022-11-15T02:59:13.903Z,9.30
2022-11-15T03:02:02.403Z,9.30
2022-11-15T03:05:05.482Z,9.30
2022-11-15T03:08:16.293Z,9.30
2022-11-15T03:11:12.909Z,9.40
2022-11-15T03:14:06.311Z,9.40
2022-11-15T03:17:09.892Z,9.40
2022-11-15T03:19:58.445Z,9.40
2022-11-15T03:22:47.014Z,9.40
2022-11-15T03:25:34.496Z,9.40
2022-11-15T03:28:26.425Z,9.40
2022-11-15T03:31:33.451Z,9.40
2022-11-15T03:34:28.666Z,9.30
2022-11-15T03:37:17.073Z,9.30
2022-11-15T03:40:04.528Z,9.30
2022-11-15T03:43:31.809Z,9.30
2022-11-15T03:46:44.125Z,9.30
2022-11-15T03:49:35.160Z,9.30
2022-11-15T03:52:22.607Z,9.30
2022-11-15T03:55:11.679Z,9.30
2022-11-15T03:58:00.602Z,9.20
2022-11-15T04:00:46.367Z,9.30
2022-11-15T04:03:32.372Z,9.30
2022-11-15T04:06:18.075Z,9.30
2022-11-15T04:09:04.140Z,9.30
2022-11-15T04:11:49.557Z,9.30
2022-11-15T04:14:35.037Z,9.30
2022-11-15T04:17:20.656Z,9.30
2022-11-15T04:20:27.866Z,9.30
2022-11-15T04:23:36.943Z,9.30
2022-11-15T04:26:23.733Z,9.30
2022-11-15T04:29:27.434Z,9.30
2022-11-15T04:32:13.034Z,9.30
2022-11-15T04:34:58.398Z,9.20
2022-11-15T04:37:49.061Z,9.30
2022-11-15T04:40:35.214Z,9.30
2022-11-15T04:43:20.769Z,9.30
2022-11-15T04:46:06.319Z,9.30
2022-11-15T04:48:57.993Z,9.30
2022-11-15T04:51:44.948Z,9.30
2022-11-15T04:54:30.241Z,9.30
2022-11-15T04:57:15.960Z,9.30
2022-11-15T05:00:01.280Z,9.30
2022-11-15T05:03:05.140Z,9.30
2022-11-15T05:05:50.611Z,9.40
2022-11-15T05:08:36.102Z,9.40
2022-11-15T05:11:21.912Z,9.40
2022-11-15T05:14:07.260Z,9.40
2022-11-15T05:16:52.788Z,9.40
2022-11-15T05:19:39.498Z,9.40
2022-11-15T05:22:24.940Z,9.40
2022-11-15T05:25:10.281Z,9.40
2022-11-15T05:27:56.062Z,9.50
2022-11-15T05:30:41.196Z,9.50
2022-11-15T05:33:27.395Z,9.50
2022-11-15T05:36:27.906Z,9.40
2022-11-15T05:39:13.105Z,9.50
2022-11-15T05:42:20.808Z,9.50
2022-11-15T05:45:09.217Z,9.40
2022-11-15T05:47:57.753Z,9.40
2022-11-15T05:50:47.338Z,9.50
2022-11-15T05:53:33.573Z,9.50
2022-11-15T05:56:19.811Z,9.50
2022-11-15T05:59:05.674Z,9.50
2022-11-15T06:01:51.148Z,9.50
2022-11-15T06:04:37.233Z,9.50
2022-11-15T06:07:23.295Z,9.50
2022-11-15T06:10:09.559Z,9.60
2022-11-15T06:13:05.179Z,9.60
2022-11-15T06:15:51.031Z,9.60
2022-11-15T06:18:36.980Z,9.60
2022-11-15T06:21:22.404Z,9.60
2022-11-15T06:24:08.186Z,9.70
2022-11-15T06:26:53.930Z,9.70
2022-11-15T06:29:39.561Z,9.70
2022-11-15T06:32:24.990Z,9.70
2022-11-15T06:35:10.584Z,9.70
2022-11-15T06:37:56.918Z,9.80
2022-11-15T06:40:42.215Z,9.80
2022-11-15T06:43:27.505Z,9.80
2022-11-15T06:46:12.944Z,9.80
2022-11-15T06:48:58.322Z,9.80
2022-11-15T06:51:43.863Z,9.80
2022-11-15T06:54:29.472Z,9.80
2022-11-15T06:57:15.217Z,9.80
2022-11-15T07:00:00.961Z,9.80
2022-11-15T07:02:47.454Z,9.80
2022-11-15T07:05:33.176Z,9.80
2022-11-15T07:08:18.575Z,9.80
2022-11-15T07:11:08.416Z,9.80
2022-11-15T07:13:53.748Z,9.80
2022-11-15T07:16:39.354Z,9.80
2022-11-15T07:19:24.666Z,9.80
2022-11-15T07:22:10.362Z,9.80
2022-11-15T07:24:56.107Z,9.80
2022-11-15T07:27:42.011Z,9.80
2022-11-15T07:30:28.332Z,9.80
2022-11-15T07:33:14.127Z,9.80
2022-11-15T07:36:02.575Z,9.80
2022-11-15T07:38:48.225Z,9.80
2022-11-15T07:41:33.875Z,9.80
2022-11-15T07:44:19.440Z,9.80
2022-11-15T07:47:04.700Z,9.80
2022-11-15T07:49:50.958Z,9.80
2022-11-15T07:52:36.590Z,9.80
2022-11-15T07:55:22.383Z,9.80
2022-11-15T07:58:10.390Z,9.80
2022-11-15T08:00:55.847Z,9.80
2022-11-15T08:03:41.440Z,9.80
2022-11-15T08:06:26.964Z,9.80
2022-11-15T08:09:12.589Z,9.90
2022-11-15T08:11:58.038Z,9.90
2022-11-15T08:14:43.575Z,9.90
2022-11-15T08:17:33.040Z,9.90
2022-11-15T08:20:18.459Z,9.90
2022-11-15T08:23:05.121Z,9.90
2022-11-15T08:25:50.428Z,9.90
2022-11-15T08:28:36.213Z,9.90
2022-11-15T08:31:21.928Z,10.00
2022-11-15T08:34:07.837Z,10.00
2022-11-15T08:36:52.981Z,10.00
2022-11-15T08:39:38.962Z,10.00
2022-11-15T08:42:24.457Z,10.00
2022-11-15T08:45:10.875Z,10.00
2022-11-15T08:47:57.036Z,10.00
2022-11-15T08:50:44.582Z,10.00
2022-11-15T08:53:30.124Z,10.10
2022-11-15T08:56:16.586Z,10.10
2022-11-15T08:59:02.064Z,10.10
2022-11-15T09:01:47.754Z,10.10
2022-11-15T09:04:33.700Z,10.10
2022-11-15T09:07:19.458Z,10.10
2022-11-15T09:10:05.543Z,10.10
2022-11-15T09:12:51.461Z,10.10
2022-11-15T09:15:37.047Z,10.10
2022-11-15T09:18:23.756Z,10.10
2022-11-15T09:21:10.066Z,10.10
2022-11-15T09:23:55.435Z,10.20
2022-11-15T09:26:41.667Z,10.10
2022-11-15T09:29:27.644Z,10.20
2022-11-15T09:32:13.157Z,10.20
2022-11-15T09:34:58.764Z,10.20
2022-11-15T09:37:44.494Z,10.20
2022-11-15T09:40:32.152Z,10.20
2022-11-15T09:43:57.061Z,10.30
2022-11-15T09:47:00.810Z,10.30
2022-11-15T09:50:02.286Z,10.30
2022-11-15T09:52:36.244Z,10.30
2022-11-15T09:55:03.571Z,10.30
2022-11-15T09:58:02.915Z,10.30
2022-11-15T10:00:46.391Z,10.30
2022-11-15T10:03:24.810Z,10.30
2022-11-15T10:05:55.564Z,10.30
2022-11-15T10:08:47.166Z,10.30
2022-11-15T10:11:40.318Z,10.30
2022-11-15T10:14:38.953Z,10.30
2022-11-15T10:17:46.405Z,10.30
2022-11-15T10:20:23.905Z,10.40
2022-11-15T10:22:53.959Z,10.40
2022-11-15T10:25:31.469Z,10.40
2022-11-15T10:28:23.455Z,10.40
2022-11-15T10:30:55.671Z,10.40
2022-11-15T10:33:39.719Z,10.40
2022-11-15T10:36:10.735Z,10.40
2022-11-15T10:38:50.275Z,10.50
2022-11-15T10:41:30.495Z,10.50
2022-11-15T10:44:19.172Z,10.50
2022-11-15T10:47:08.170Z,10.50
2022-11-15T10:49:35.990Z,10.50
2022-11-15T10:52:15.485Z,10.50
2022-11-15T10:54:56.245Z,10.60
2022-11-15T10:57:27.222Z,10.50
2022-11-15T10:59:57.357Z,10.50
2022-11-15T11:03:01.563Z,10.60
2022-11-15T11:05:42.226Z,10.60
2022-11-15T11:08:13.095Z,10.60
2022-11-15T11:11:01.543Z,10.60
2022-11-15T11:13:30.027Z,10.60
2022-11-15T11:16:06.334Z,10.60
2022-11-15T11:18:40.230Z,10.70
2022-11-15T11:21:15.428Z,10.60
2022-11-15T11:23:59.632Z,10.70
2022-11-15T11:26:41.985Z,10.70
2022-11-15T11:29:32.898Z,10.70
2022-11-15T11:32:33.258Z,10.70
2022-11-15T11:35:02.972Z,10.70
2022-11-15T11:37:45.014Z,10.80
2022-11-15T11:40:40.614Z,10.80
2022-11-15T11:43:22.875Z,10.80
2022-11-15T11:46:22.235Z,10.80
2022-11-15T11:49:04.377Z,10.80
2022-11-15T11:51:51.815Z,10.80
2022-11-15T11:54:57.393Z,10.80
2022-11-15T11:57:30.445Z,10.80
2022-11-15T12:00:04.656Z,10.90
2022-11-15T12:02:48.176Z,10.90
2022-11-15T12:05:28.378Z,10.90
2022-11-15T12:08:04.504Z,10.90
2022-11-15T12:10:33.568Z,10.90
2022-11-15T12:13:11.245Z,10.90
2022-11-15T12:15:48.603Z,11.00
2022-11-15T12:18:17.502Z,11.00
2022-11-15T12:21:13.057Z,10.90
2022-11-15T12:24:05.280Z,11.00
2022-11-15T12:27:13.812Z,11.00
2022-11-15T12:29:46.095Z,11.00
2022-11-15T12:32:37.223Z,11.00
2022-11-15T12:35:22.761Z,11.00
2022-11-15T12:37:53.003Z,11.00
2022-11-15T12:40:25.357Z,11.00
2022-11-15T12:43:23.347Z,11.10
2022-11-15T12:45:50.309Z,11.10
2022-11-15T12:48:17.260Z,11.10
2022-11-15T12:50:56.287Z,11.10
2022-11-15T12:53:26.463Z,11.10
2022-11-15T12:56:05.613Z,11.10
2022-11-15T12:58:48.924Z,11.10
2022-11-15T13:01:34.948Z,11.10
2022-11-15T13:04:22.380Z,11.10
2022-11-15T13:07:09.609Z,11.20
2022-11-15T13:09:36.533Z,11.20
2022-11-15T13:12:05.511Z,11.20
2022-11-15T13:14:38.216Z,11.20
2022-11-15T13:17:17.653Z,11.20
2022-11-15T13:19:46.509Z,11.20
2022-11-15T13:22:32.149Z,11.20
2022-11-15T13:25:01.773Z,11.20
2022-11-15T13:27:30.109Z,11.20
2022-11-15T13:29:57.132Z,11.20
2022-11-15T13:32:24.449Z,11.30
2022-11-15T13:34:53.891Z,11.20
2022-11-15T13:37:24.057Z,11.20
2022-11-15T13:39:51.276Z,11.30
2022-11-15T13:42:20.996Z,11.30
2022-11-15T13:45:03.707Z,11.30
2022-11-15T13:47:32.623Z,11.30
2022-11-15T13:50:02.057Z,11.30
2022-11-15T13:52:37.345Z,11.30
2022-11-15T13:55:10.620Z,11.30
2022-11-15T13:57:43.091Z,11.40
2022-11-15T14:00:45.778Z,11.40
2022-11-15T14:03:33.844Z,11.40
2022-11-15T14:06:03.968Z,11.40
2022-11-15T14:08:31.502Z,11.50
2022-11-15T14:11:10.548Z,11.40
2022-11-15T14:13:38.053Z,11.50
2022-11-15T14:16:38.353Z,11.50
2022-11-15T14:19:07.464Z,11.50
2022-11-15T14:21:34.628Z,11.60
2022-11-15T14:24:19.516Z,11.60
2022-11-15T14:26:46.895Z,11.60
2022-11-15T14:29:30.940Z,11.60
2022-11-15T14:32:15.302Z,11.60
2022-11-15T14:34:42.333Z,11.60
2022-11-15T14:37:25.467Z,11.60
2022-11-15T14:39:53.180Z,11.60
2022-11-15T14:42:21.559Z,11.60
2022-11-15T14:44:48.548Z,11.60
2022-11-15T14:47:15.594Z,11.60
2022-11-15T14:49:42.972Z,11.70
2022-11-15T14:52:32.987Z,11.70
2022-11-15T14:55:02.522Z,11.70
2022-11-15T14:57:29.903Z,11.60
2022-11-15T14:59:57.839Z,11.60
2022-11-15T15:02:39.102Z,11.60
2022-11-15T15:05:34.131Z,11.60
2022-11-15T15:08:01.980Z,11.60
2022-11-15T15:10:41.440Z,11.60
2022-11-15T15:13:17.973Z,11.60
2022-11-15T15:15:45.511Z,11.50
2022-11-15T15:18:12.516Z,11.50
2022-11-15T15:20:41.749Z,11.50
2022-11-15T15:23:20.495Z,11.40
2022-11-15T15:25:49.935Z,11.40
2022-11-15T15:28:16.962Z,11.30
2022-11-15T15:30:44.676Z,11.30
2022-11-15T15:33:11.803Z,11.20
2022-11-15T15:35:38.788Z,11.10
2022-11-15T15:38:05.762Z,11.10
2022-11-15T15:40:34.270Z,11.00
2022-11-15T15:43:01.132Z,11.00
2022-11-15T15:45:29.074Z,10.90
2022-11-15T15:47:56.629Z,10.90
2022-11-15T15:50:25.772Z,10.90
2022-11-15T15:52:55.406Z,10.80
2022-11-15T15:55:22.478Z,10.80
2022-11-15T15:57:49.598Z,10.70
2022-11-15T16:00:17.792Z,10.70
2022-11-15T16:02:45.175Z,10.70
2022-11-15T16:05:14.546Z,10.60
2022-11-15T16:07:44.241Z,10.50
2022-11-15T16:10:28.639Z,10.40
2022-11-15T16:12:57.112Z,10.30
2022-11-15T16:15:25.340Z,10.30
2022-11-15T16:17:54.554Z,10.20
2022-11-15T16:20:33.867Z,10.10
2022-11-15T16:23:07.328Z,10.00
2022-11-15T16:25:41.671Z,10.00
2022-11-15T16:28:26.289Z,9.90
2022-11-15T16:31:05.186Z,9.80
2022-11-15T16:33:32.810Z,9.80
2022-11-15T16:36:00.138Z,9.70
2022-11-15T16:38:27.198Z,9.70
2022-11-15T16:40:54.128Z,9.60
2022-11-15T16:43:21.100Z,9.50
2022-11-15T16:45:49.432Z,9.50
2022-11-15T16:48:27.567Z,9.40
2022-11-15T16:50:59.131Z,9.40
2022-11-15T16:53:27.647Z,9.30
2022-11-15T16:55:57.909Z,9.30
2022-11-15T16:58:25.134Z,9.30
2022-11-15T17:00:56.710Z,9.20
2022-11-15T17:03:25.102Z,9.20
2022-11-15T17:05:52.877Z,9.10
2022-11-15T17:08:21.988Z,9.10
2022-11-15T17:10:49.451Z,9.00
2022-11-15T17:13:16.422Z,9.00
2022-11-15T17:15:43.984Z,9.00
2022-11-15T17:18:15.566Z,8.90
2022-11-15T17:20:43.431Z,8.90
2022-11-15T17:23:14.781Z,8.90
2022-11-15T17:25:42.509Z,8.90
2022-11-15T17:28:10.017Z,8.90
2022-11-15T17:30:36.974Z,8.80
2022-11-15T17:33:04.058Z,8.80
2022-11-15T17:35:31.019Z,8.70
2022-11-15T17:37:57.940Z,8.70
2022-11-15T17:40:24.921Z,8.70
2022-11-15T17:42:51.872Z,8.70
2022-11-15T17:45:19.086Z,8.70
2022-11-15T17:47:46.052Z,8.70
2022-11-15T17:50:13.053Z,8.60
2022-11-15T17:52:39.958Z,8.60
2022-11-15T17:55:07.213Z,8.60
2022-11-15T17:57:34.108Z,8.50
2022-11-15T18:00:01.179Z,8.60
2022-11-15T18:02:31.127Z,8.50
2022-11-15T18:04:58.117Z,8.50
2022-11-15T18:07:25.197Z,8.50
2022-11-15T18:09:52.238Z,8.40
2022-11-15T18:12:19.862Z,8.40
2022-11-15T18:14:46.849Z,8.30
2022-11-15T18:17:13.834Z,8.30
2022-11-15T18:19:40.819Z,8.30
2022-11-15T18:22:10.400Z,8.30
2022-11-15T18:24:42.900Z,8.20
2022-11-15T18:27:10.259Z,8.20
2022-11-15T18:29:38.104Z,8.20
2022-11-15T18:32:11.623Z,8.20
2022-11-15T18:34:40.116Z,8.20
2022-11-15T18:37:09.592Z,8.20
2022-11-15T18:39:39.552Z,8.10
2022-11-15T18:42:06.745Z,8.10
2022-11-15T18:44:34.477Z,8.10
2022-11-15T18:47:01.539Z,8.20
2022-11-15T18:49:28.638Z,8.20
2022-11-15T18:51:56.962Z,8.10
2022-11-15T18:54:29.568Z,8.10
2022-11-15T18:56:56.701Z,8.10
2022-11-15T18:59:23.654Z,8.10
2022-11-15T19:01:52.324Z,8.10
2022-11-15T19:04:20.444Z,8.10
2022-11-15T19:06:49.165Z,8.10
2022-11-15T19:09:18.874Z,8.10
2022-11-15T19:11:48.184Z,8.20
2022-11-15T19:14:17.598Z,8.10
2022-11-15T19:16:50.046Z,8.20
2022-11-15T19:19:19.540Z,8.20
2022-11-15T19:21:47.048Z,8.20
2022-11-15T19:24:14.655Z,8.20
2022-11-15T19:26:41.778Z,8.20
2022-11-15T19:29:13.848Z,8.20
2022-11-15T19:31:41.359Z,8.20
2022-11-15T19:34:08.920Z,8.20
2022-11-15T19:36:41.646Z,8.20
2022-11-15T19:39:12.891Z,8.20
2022-11-15T19:41:42.604Z,8.20
2022-11-15T19:44:11.252Z,8.20
2022-11-15T19:46:39.010Z,8.30
2022-11-15T19:49:11.006Z,8.30
2022-11-15T19:51:39.738Z,8.30
2022-11-15T19:54:09.004Z,8.30
2022-11-15T19:56:36.896Z,8.30
2022-11-15T19:59:05.174Z,8.30
2022-11-15T20:01:36.381Z,8.30
2022-11-15T20:04:04.189Z,8.30
2022-11-15T20:06:34.156Z,8.40
2022-11-15T20:09:01.328Z,8.30
2022-11-15T20:11:28.478Z,8.30
2022-11-15T20:14:01.869Z,8.30
2022-11-15T20:16:29.538Z,8.40
2022-11-15T20:18:56.752Z,8.40
2022-11-15T20:21:23.836Z,8.40
2022-11-15T20:23:51.657Z,8.40
2022-11-15T20:26:20.141Z,8.50
2022-11-15T20:28:48.246Z,8.50
2022-11-15T20:31:15.619Z,8.50
2022-11-15T20:33:42.646Z,8.50
2022-11-15T20:36:15.647Z,8.50
2022-11-15T20:38:43.675Z,8.60
2022-11-15T20:41:11.946Z,8.50
2022-11-15T20:43:41.714Z,8.50
2022-11-15T20:46:09.183Z,8.60
2022-11-15T20:48:36.581Z,8.60
2022-11-15T20:51:15.916Z,8.60
2022-11-15T20:53:44.457Z,8.60
2022-11-15T20:56:17.248Z,8.60
2022-11-15T20:58:45.766Z,8.60
2022-11-15T21:01:15.103Z,8.70
2022-11-15T21:03:42.627Z,8.70
2022-11-15T21:06:10.465Z,8.70
2022-11-15T21:08:57.482Z,8.70
2022-11-15T21:11:43.519Z,8.70
2022-11-15T21:14:10.656Z,8.70
2022-11-15T21:16:38.993Z,8.80
2022-11-15T21:19:07.038Z,8.70
2022-11-15T21:21:35.665Z,8.80
2022-11-15T21:24:03.477Z,8.70
2022-11-15T21:26:30.514Z,8.80
2022-11-15T21:28:57.520Z,8.80
2022-11-15T21:31:24.698Z,8.80
2022-11-15T21:33:51.825Z,8.80
2022-11-15T21:36:18.804Z,8.80
2022-11-15T21:38:45.877Z,8.80
2022-11-15T21:41:12.889Z,8.80
2022-11-15T21:43:39.955Z,8.80
2022-11-15T21:46:07.512Z,8.80
2022-11-15T21:48:35.960Z,8.80
2022-11-15T21:51:06.022Z,8.80
2022-11-15T21:53:33.593Z,8.80
2022-11-15T21:56:01.933Z,8.80
2022-11-15T21:58:29.582Z,8.70
2022-11-15T22:01:15.881Z,8.70
2022-11-15T22:03:43.621Z,8.70
2022-11-15T22:06:16.247Z,8.70
2022-11-15T22:08:45.812Z,8.70
2022-11-15T22:11:13.360Z,8.70
2022-11-15T22:13:40.417Z,8.70
2022-11-15T22:16:08.619Z,8.70
2022-11-15T22:18:36.311Z,8.70
2022-11-15T22:21:14.784Z,8.70
2022-11-15T22:23:42.869Z,8.70
2022-11-15T22:26:19.510Z,8.70
2022-11-15T22:28:50.158Z,8.70
2022-11-15T22:31:17.129Z,8.80
2022-11-15T22:33:44.353Z,8.80
2022-11-15T22:36:12.567Z,8.70
2022-11-15T22:38:39.729Z,8.80
2022-11-15T22:41:06.723Z,8.80
2022-11-15T22:43:33.786Z,8.80
2022-11-15T22:46:02.267Z,8.80
2022-11-15T22:48:31.479Z,8.70
2022-11-15T22:50:59.278Z,8.70
2022-11-15T22:53:26.987Z,8.70
2022-11-15T22:55:57.134Z,8.70
2022-11-15T22:58:26.108Z,8.70
2022-11-15T23:00:58.481Z,8.70
2022-11-15T23:03:27.050Z,8.70
2022-11-15T23:05:54.399Z,8.60
2022-11-15T23:08:23.349Z,8.60
2022-11-15T23:11:08.985Z,8.60
2022-11-15T23:13:36.200Z,8.50
2022-11-15T23:16:25.998Z,8.50
2022-11-15T23:18:58.983Z,8.40
2022-11-15T23:21:54.000Z,8.40
2022-11-15T23:24:21.509Z,8.40
2022-11-15T23:26:51.199Z,8.30
2022-11-15T23:29:20.401Z,8.30
2022-11-15T23:32:06.281Z,8.30
2022-11-15T23:34:36.877Z,8.30
2022-11-15T23:37:14.780Z,8.30
2022-11-15T23:39:42.044Z,8.20
2022-11-15T23:42:09.736Z,8.20
2022-11-15T23:44:37.270Z,8.20
2022-11-15T23:47:04.802Z,8.10
2022-11-15T23:49:31.832Z,8.10
2022-11-15T23:51:58.885Z,8.10
2022-11-15T23:54:30.812Z,8.00
2022-11-15T23:56:57.810Z,7.90
2022-11-15T23:59:24.798Z,7.90
